createdAt,value
2022-11-13T00:01:52.175Z,18.00
2022-11-13T00:04:38.393Z,18.00
2022-11-13T00:07:24.594Z,18.10
2022-11-13T00:10:12.586Z,18.00
2022-11-13T00:12:58.969Z,17.90
2022-11-13T00:15:45.493Z,18.00
2022-11-13T00:18:34.617Z,18.10
2022-11-13T00:21:23.370Z,18.10
2022-11-13T00:24:09.644Z,18.00
2022-11-13T00:26:57.182Z,18.00
2022-11-13T00:29:43.355Z,17.90
2022-11-13T00:32:29.791Z,17.90
2022-11-13T00:35:16.281Z,18.00
2022-11-13T00:38:02.696Z,17.90
2022-11-13T00:40:48.894Z,17.90
2022-11-13T00:43:36.813Z,17.90
2022-11-13T00:46:23.447Z,17.90
2022-11-13T00:49:09.783Z,17.80
2022-11-13T00:51:55.970Z,17.80
2022-11-13T00:54:42.553Z,17.90
2022-11-13T00:57:28.806Z,17.90
2022-11-13T01:00:17.675Z,17.80
2022-11-13T01:03:04.441Z,17.80
2022-11-13T01:05:50.568Z,17.80
2022-11-13T01:08:37.023Z,17.70
2022-11-13T01:11:26.540Z,17.80
2022-11-13T01:14:13.190Z,17.80
2022-11-13T01:17:01.743Z,17.70
2022-11-13T01:19:48.408Z,17.80
2022-11-13T01:22:34.973Z,17.80
2022-11-13T01:25:21.550Z,17.80
2022-11-13T01:28:07.983Z,17.70
2022-11-13T01:30:54.431Z,17.70
2022-11-13T01:33:42.083Z,17.80
2022-11-13T01:36:29.582Z,17.90
2022-11-13T01:39:15.821Z,17.90
2022-11-13T01:42:02.635Z,17.80
2022-11-13T01:44:53.228Z,17.70
2022-11-13T01:47:39.519Z,17.80
2022-11-13T01:50:27.648Z,17.80
2022-11-13T01:53:13.896Z,17.80
2022-11-13T01:56:00.533Z,17.70
2022-11-13T01:58:52.240Z,17.60
2022-11-13T02:01:39.096Z,17.70
2022-11-13T02:04:26.513Z,17.60
2022-11-13T02:07:15.925Z,17.70
2022-11-13T02:10:02.453Z,17.60
2022-11-13T02:12:52.479Z,17.60
2022-11-13T02:15:39.879Z,17.60
2022-11-13T02:18:29.347Z,17.70
2022-11-13T02:21:28.094Z,17.70
2022-11-13T02:24:25.618Z,17.70
2022-11-13T02:27:16.841Z,17.70
2022-11-13T02:30:16.075Z,17.60
2022-11-13T02:33:03.367Z,17.60
2022-11-13T02:35:49.930Z,17.60
2022-11-13T02:38:37.525Z,17.60
2022-11-13T02:41:25.286Z,17.50
2022-11-13T02:44:11.814Z,17.70
2022-11-13T02:46:58.190Z,17.60
2022-11-13T02:49:44.584Z,17.50
2022-11-13T02:52:31.693Z,17.60
2022-11-13T02:55:18.750Z,17.50
2022-11-13T02:58:06.635Z,17.40
2022-11-13T03:00:52.904Z,17.60
2022-11-13T03:06:46.063Z,17.60
2022-11-13T03:09:32.379Z,17.50
2022-11-13T03:12:18.767Z,17.50
2022-11-13T03:15:08.539Z,17.50
2022-11-13T03:17:55.110Z,17.50
2022-11-13T03:20:43.372Z,17.50
2022-11-13T03:23:29.913Z,17.50
2022-11-13T03:26:17.717Z,17.50
2022-11-13T03:29:03.915Z,17.40
2022-11-13T03:31:51.507Z,17.50
2022-11-13T03:34:38.556Z,17.40
2022-11-13T03:37:25.144Z,17.50
2022-11-13T03:40:12.433Z,17.30
2022-11-13T03:42:58.634Z,17.30
2022-11-13T03:45:46.013Z,17.40
2022-11-13T03:48:33.707Z,17.50
2022-11-13T03:51:20.074Z,17.40
2022-11-13T03:54:06.790Z,17.40
2022-11-13T03:56:53.009Z,17.30
2022-11-13T03:59:39.578Z,17.30
2022-11-13T04:02:26.107Z,17.30
2022-11-13T04:05:17.436Z,17.30
2022-11-13T04:08:06.791Z,17.30
2022-11-13T04:10:53.027Z,17.30
2022-11-13T04:13:39.674Z,17.30
2022-11-13T04:16:26.377Z,17.20
2022-11-13T04:19:12.646Z,17.10
2022-11-13T04:22:00.470Z,17.40
2022-11-13T04:24:46.871Z,17.40
2022-11-13T04:27:33.317Z,17.50
2022-11-13T04:30:20.406Z,17.50
2022-11-13T04:33:06.962Z,17.50
2022-11-13T04:35:53.427Z,17.60
2022-11-13T04:38:41.031Z,17.40
2022-11-13T04:41:44.950Z,17.50
2022-11-13T04:44:31.343Z,17.60
2022-11-13T04:47:17.738Z,17.60
2022-11-13T04:50:04.435Z,17.60
2022-11-13T04:52:50.720Z,17.70
2022-11-13T04:55:38.173Z,17.60
2022-11-13T04:58:24.334Z,17.60
2022-11-13T05:01:10.824Z,17.60
2022-11-13T05:03:56.930Z,17.70
2022-11-13T05:06:43.360Z,17.60
2022-11-13T05:09:29.559Z,17.60
2022-11-13T05:12:17.095Z,17.70
2022-11-13T05:15:03.745Z,17.60
2022-11-13T05:17:50.154Z,17.60
2022-11-13T05:20:36.434Z,17.60
2022-11-13T05:23:22.669Z,17.70
2022-11-13T05:26:11.304Z,17.70
2022-11-13T05:28:59.926Z,17.60
2022-11-13T05:31:46.635Z,17.70
2022-11-13T05:34:33.736Z,17.60
2022-11-13T05:37:19.927Z,17.70
2022-11-13T05:40:07.421Z,17.60
2022-11-13T05:42:54.414Z,17.30
2022-11-13T05:45:42.015Z,17.50
2022-11-13T05:48:28.936Z,17.60
2022-11-13T05:51:16.982Z,17.60
2022-11-13T05:54:03.421Z,17.70
2022-11-13T05:56:49.588Z,17.80
2022-11-13T05:59:36.133Z,17.70
2022-11-13T06:02:23.889Z,17.80
2022-11-13T06:05:10.274Z,17.50
2022-11-13T06:07:56.854Z,17.20
2022-11-13T06:10:43.286Z,17.10
2022-11-13T06:13:30.442Z,17.40
2022-11-13T06:16:19.185Z,17.40
2022-11-13T06:19:09.776Z,17.50
2022-11-13T06:21:56.203Z,17.60
2022-11-13T06:24:42.618Z,17.40
2022-11-13T06:27:28.999Z,17.20
2022-11-13T06:30:15.814Z,16.80
2022-11-13T06:33:02.351Z,16.80
2022-11-13T06:35:49.872Z,16.90
2022-11-13T06:38:38.068Z,16.90
2022-11-13T06:41:25.967Z,17.00
2022-11-13T06:44:12.216Z,17.10
2022-11-13T06:46:58.612Z,17.10
2022-11-13T06:49:44.871Z,17.20
2022-11-13T06:52:32.728Z,17.10
2022-11-13T06:55:18.720Z,17.00
2022-11-13T06:58:04.971Z,16.90
2022-11-13T07:00:52.031Z,16.90
2022-11-13T07:03:38.412Z,16.90
2022-11-13T07:06:25.747Z,16.90
2022-11-13T07:09:13.542Z,16.90
2022-11-13T07:11:59.989Z,16.80
2022-11-13T07:14:46.177Z,16.80
2022-11-13T07:17:32.366Z,16.90
2022-11-13T07:20:18.872Z,16.90
2022-11-13T07:23:06.583Z,16.90
2022-11-13T07:25:55.967Z,16.90
2022-11-13T07:28:42.411Z,16.90
2022-11-13T07:31:28.665Z,16.80
2022-11-13T07:34:15.203Z,16.90
2022-11-13T07:37:01.549Z,16.90
2022-11-13T07:39:47.959Z,16.80
2022-11-13T07:42:35.955Z,16.80
2022-11-13T07:45:22.571Z,16.80
2022-11-13T07:48:09.153Z,16.90
2022-11-13T07:50:55.482Z,16.90
2022-11-13T07:53:42.083Z,16.90
2022-11-13T07:56:28.613Z,16.90
2022-11-13T07:59:16.151Z,17.00
2022-11-13T08:02:02.920Z,17.10
2022-11-13T08:04:49.245Z,17.10
2022-11-13T08:07:35.645Z,16.90
2022-11-13T08:10:22.851Z,17.10
2022-11-13T08:13:11.588Z,17.10
2022-11-13T08:16:01.421Z,17.20
2022-11-13T08:18:47.894Z,17.20
2022-11-13T08:21:35.680Z,17.30
2022-11-13T08:24:22.088Z,17.40
2022-11-13T08:27:08.562Z,17.40
2022-11-13T08:29:55.141Z,17.50
2022-11-13T08:32:42.877Z,17.30
2022-11-13T08:35:29.716Z,17.30
2022-11-13T08:38:15.975Z,17.40
2022-11-13T08:41:08.859Z,17.40
2022-11-13T08:43:55.700Z,17.40
2022-11-13T08:46:42.144Z,17.40
2022-11-13T08:49:30.076Z,17.30
2022-11-13T08:52:16.398Z,17.30
2022-11-13T08:55:02.612Z,17.30
2022-11-13T08:57:48.906Z,17.30
2022-11-13T09:00:35.401Z,17.20
2022-11-13T09:03:21.883Z,17.10
2022-11-13T09:06:10.583Z,17.10
2022-11-13T09:08:56.943Z,17.10
2022-11-13T09:11:43.390Z,17.20
2022-11-13T09:14:30.511Z,17.20
2022-11-13T09:17:17.779Z,17.20
2022-11-13T09:20:08.803Z,17.20
2022-11-13T09:23:01.486Z,17.20
2022-11-13T09:25:47.865Z,17.30
2022-11-13T09:28:34.567Z,17.40
2022-11-13T09:31:20.809Z,17.40
2022-11-13T09:34:07.562Z,17.30
2022-11-13T09:36:54.480Z,17.30
2022-11-13T09:39:42.184Z,17.20
2022-11-13T09:42:32.063Z,17.30
2022-11-13T09:45:18.486Z,17.20
2022-11-13T09:48:14.054Z,17.20
2022-11-13T09:51:04.873Z,17.30
2022-11-13T09:53:51.461Z,17.40
2022-11-13T09:56:43.366Z,17.40
2022-11-13T09:59:36.199Z,17.50
2022-11-13T10:02:28.945Z,17.50
2022-11-13T10:05:23.592Z,17.50
2022-11-13T10:08:15.036Z,17.60
2022-11-13T10:11:10.158Z,17.50
2022-11-13T10:14:02.537Z,17.70
2022-11-13T10:16:52.954Z,17.80
2022-11-13T10:19:44.013Z,17.90
2022-11-13T10:22:36.759Z,17.90
2022-11-13T10:25:26.643Z,17.90
2022-11-13T10:28:43.696Z,17.90
2022-11-13T10:31:24.547Z,17.90
2022-11-13T10:34:12.770Z,18.20
2022-11-13T10:37:14.205Z,18.30
2022-11-13T10:40:00.649Z,18.50
2022-11-13T10:42:47.171Z,18.50
2022-11-13T10:45:33.898Z,17.90
2022-11-13T10:48:23.038Z,17.50
2022-11-13T10:51:23.379Z,17.30
2022-11-13T10:54:22.994Z,17.20
2022-11-13T10:57:25.843Z,17.20
2022-11-13T11:00:25.195Z,17.20
2022-11-13T11:03:16.027Z,17.00
2022-11-13T11:06:05.430Z,16.90
2022-11-13T11:08:51.654Z,16.90
2022-11-13T11:11:55.583Z,16.90
2022-11-13T11:14:46.056Z,16.90
2022-11-13T11:17:41.860Z,16.90
2022-11-13T11:20:42.231Z,16.90
2022-11-13T11:23:38.381Z,17.30
2022-11-13T11:26:29.946Z,17.60
2022-11-13T11:29:22.376Z,17.70
2022-11-13T11:32:17.699Z,17.90
2022-11-13T11:35:12.318Z,17.80
2022-11-13T11:38:06.247Z,17.90
2022-11-13T11:41:00.243Z,17.90
2022-11-13T11:43:52.143Z,18.00
2022-11-13T11:46:41.610Z,18.00
2022-11-13T11:49:32.025Z,18.00
2022-11-13T11:52:43.234Z,18.10
2022-11-13T11:55:57.175Z,18.10
2022-11-13T11:59:02.172Z,18.10
2022-11-13T12:02:01.540Z,18.20
2022-11-13T12:05:01.666Z,18.20
2022-11-13T12:07:58.744Z,18.20
2022-11-13T12:10:51.329Z,18.20
2022-11-13T12:13:44.936Z,18.20
2022-11-13T12:16:42.495Z,18.30
2022-11-13T12:19:38.758Z,18.30
2022-11-13T12:22:31.158Z,18.40
2022-11-13T12:25:25.413Z,18.40
2022-11-13T12:28:18.557Z,18.40
2022-11-13T12:31:12.503Z,18.40
2022-11-13T12:34:08.433Z,18.50
2022-11-13T12:36:55.893Z,18.50
2022-11-13T12:39:50.254Z,18.50
2022-11-13T12:42:43.796Z,18.50
2022-11-13T12:45:45.376Z,18.50
2022-11-13T12:48:36.039Z,18.50
2022-11-13T12:51:24.141Z,18.50
2022-11-13T12:54:11.367Z,18.50
2022-11-13T12:57:24.427Z,18.50
2022-11-13T13:00:25.416Z,18.50
2022-11-13T13:03:41.331Z,18.60
2022-11-13T13:06:47.173Z,18.60
2022-11-13T13:09:48.135Z,18.60
2022-11-13T13:12:47.147Z,18.60
2022-11-13T13:15:37.168Z,18.60
2022-11-13T13:18:30.104Z,18.60
2022-11-13T13:21:18.830Z,18.60
2022-11-13T13:24:27.731Z,18.60
2022-11-13T13:27:25.609Z,18.50
2022-11-13T13:30:20.985Z,18.60
2022-11-13T13:33:21.080Z,18.60
2022-11-13T13:36:19.547Z,18.60
2022-11-13T13:39:25.003Z,18.60
2022-11-13T13:42:23.127Z,18.70
2022-11-13T13:45:25.300Z,18.70
2022-11-13T13:48:14.394Z,18.70
2022-11-13T13:51:02.865Z,18.60
2022-11-13T13:53:50.162Z,18.70
2022-11-13T13:56:42.018Z,18.70
2022-11-13T13:59:34.113Z,18.70
2022-11-13T14:02:22.978Z,18.60
2022-11-13T14:05:25.608Z,18.60
2022-11-13T14:08:18.497Z,18.60
2022-11-13T14:11:16.678Z,18.50
2022-11-13T14:14:10.431Z,18.60
2022-11-13T14:16:58.582Z,18.50
2022-11-13T14:19:50.477Z,18.50
2022-11-13T14:22:37.023Z,18.50
2022-11-13T14:25:25.653Z,18.50
2022-11-13T14:28:16.991Z,18.40
2022-11-13T14:31:07.641Z,18.40
2022-11-13T14:33:54.283Z,18.30
2022-11-13T14:36:41.187Z,18.40
2022-11-13T14:39:29.901Z,18.40
2022-11-13T14:42:20.347Z,18.30
2022-11-13T14:45:14.830Z,18.30
2022-11-13T14:48:05.219Z,18.30
2022-11-13T14:50:53.458Z,18.20
2022-11-13T14:53:42.256Z,18.20
2022-11-13T14:56:36.698Z,18.10
2022-11-13T14:59:27.081Z,18.10
2022-11-13T15:02:14.066Z,18.10
2022-11-13T15:05:01.943Z,18.00
2022-11-13T15:07:48.794Z,18.00
2022-11-13T15:10:35.366Z,18.00
2022-11-13T15:13:21.935Z,18.00
2022-11-13T15:16:13.723Z,18.10
2022-11-13T15:19:03.390Z,18.00
2022-11-13T15:22:20.485Z,18.10
2022-11-13T15:24:57.807Z,18.00
2022-11-13T15:27:43.902Z,18.00
2022-11-13T15:30:30.361Z,17.90
2022-11-13T15:33:17.484Z,18.00
2022-11-13T15:36:04.132Z,17.90
2022-11-13T15:38:51.807Z,17.90
2022-11-13T15:41:38.332Z,17.80
2022-11-13T15:44:24.719Z,17.70
2022-11-13T15:47:26.390Z,17.80
2022-11-13T15:50:14.859Z,17.70
2022-11-13T15:53:05.520Z,17.70
2022-11-13T15:55:53.723Z,17.60
2022-11-13T15:58:40.016Z,17.50
2022-11-13T16:01:26.556Z,17.50
2022-11-13T16:04:14.718Z,17.40
2022-11-13T16:07:01.064Z,17.50
2022-11-13T16:09:47.271Z,17.50
2022-11-13T16:12:35.781Z,17.50
2022-11-13T16:15:22.435Z,17.50
2022-11-13T16:18:20.996Z,17.70
2022-11-13T16:21:07.791Z,17.70
2022-11-13T16:23:54.005Z,17.70
2022-11-13T16:26:42.209Z,17.70
2022-11-13T16:29:30.823Z,17.70
2022-11-13T16:32:18.092Z,17.60
2022-11-13T16:35:04.707Z,17.50
2022-11-13T16:37:50.936Z,17.50
2022-11-13T16:40:37.348Z,17.50
2022-11-13T16:43:24.172Z,17.50
2022-11-13T16:46:21.184Z,17.60
2022-11-13T16:49:11.835Z,17.70
2022-11-13T16:51:58.515Z,17.70
2022-11-13T16:54:45.144Z,17.70
2022-11-13T16:57:31.540Z,17.70
2022-11-13T17:00:20.315Z,17.60
2022-11-13T17:03:07.895Z,17.70
2022-11-13T17:05:54.317Z,17.70
2022-11-13T17:08:40.684Z,17.50
2022-11-13T17:11:28.894Z,17.50
2022-11-13T17:14:15.290Z,17.40
2022-11-13T17:17:01.915Z,17.40
2022-11-13T17:19:49.741Z,17.40
2022-11-13T17:22:35.859Z,17.40
2022-11-13T17:25:26.229Z,17.30
2022-11-13T17:28:12.861Z,17.30
2022-11-13T17:31:03.420Z,17.20
2022-11-13T17:33:52.584Z,17.20
2022-11-13T17:36:40.299Z,17.20
2022-11-13T17:39:26.847Z,17.20
2022-11-13T17:42:13.153Z,17.10
2022-11-13T17:44:59.345Z,17.10
2022-11-13T17:47:45.627Z,17.10
2022-11-13T17:50:32.231Z,17.10
2022-11-13T17:53:19.914Z,17.10
2022-11-13T17:56:08.286Z,17.00
2022-11-13T17:58:54.525Z,17.00
2022-11-13T18:01:41.124Z,17.10
2022-11-13T18:04:27.519Z,17.10
2022-11-13T18:07:13.802Z,17.10
2022-11-13T18:10:01.478Z,17.10
2022-11-13T18:12:48.310Z,17.10
2022-11-13T18:15:36.170Z,17.10
2022-11-13T18:18:22.581Z,17.10
2022-11-13T18:21:23.697Z,17.10
2022-11-13T18:24:14.310Z,17.00
2022-11-13T18:27:02.123Z,17.00
2022-11-13T18:29:48.297Z,17.00
2022-11-13T18:32:34.733Z,17.00
2022-11-13T18:35:21.205Z,17.00
2022-11-13T18:38:07.666Z,17.00
2022-11-13T18:41:01.624Z,17.10
2022-11-13T18:43:50.816Z,17.10
2022-11-13T18:46:37.294Z,17.00
2022-11-13T18:49:23.645Z,17.00
2022-11-13T18:52:10.098Z,17.00
2022-11-13T18:54:56.357Z,17.00
2022-11-13T18:57:42.895Z,17.10
2022-11-13T19:00:30.663Z,17.10
2022-11-13T19:03:17.203Z,17.00
2022-11-13T19:06:06.381Z,16.90
2022-11-13T19:08:56.840Z,16.90
2022-11-13T19:11:44.150Z,16.90
2022-11-13T19:14:30.733Z,16.90
2022-11-13T19:17:18.770Z,17.00
2022-11-13T19:20:05.791Z,17.00
2022-11-13T19:22:52.039Z,16.90
2022-11-13T19:25:38.419Z,16.90
2022-11-13T19:28:24.760Z,16.90
2022-11-13T19:31:13.886Z,16.90
2022-11-13T19:34:05.798Z,16.80
2022-11-13T19:36:52.991Z,16.90
2022-11-13T19:39:39.250Z,17.00
2022-11-13T19:42:25.435Z,17.10
2022-11-13T19:45:12.218Z,17.20
2022-11-13T19:47:58.640Z,17.20
2022-11-13T19:50:47.303Z,17.10
2022-11-13T19:53:33.884Z,17.00
2022-11-13T19:56:21.806Z,17.00
2022-11-13T19:59:11.016Z,17.00
2022-11-13T20:01:57.208Z,16.70
2022-11-13T20:04:43.432Z,16.60
2022-11-13T20:07:31.293Z,16.70
2022-11-13T20:10:18.015Z,16.70
2022-11-13T20:13:04.607Z,16.90
2022-11-13T20:15:54.299Z,17.00
2022-11-13T20:18:42.212Z,17.10
2022-11-13T20:21:31.322Z,17.00
2022-11-13T20:24:18.914Z,16.90
2022-11-13T20:27:05.413Z,16.80
2022-11-13T20:29:51.944Z,17.00
2022-11-13T20:32:38.665Z,16.90
2022-11-13T20:35:25.291Z,16.90
2022-11-13T20:38:11.972Z,16.80
2022-11-13T20:40:59.523Z,16.80
2022-11-13T20:43:45.703Z,16.90
2022-11-13T20:46:31.933Z,16.90
2022-11-13T20:49:18.116Z,16.70
2022-11-13T20:52:06.919Z,16.50
2022-11-13T20:54:53.303Z,16.40
2022-11-13T20:57:41.327Z,16.30
2022-11-13T21:00:28.001Z,16.30
2022-11-13T21:03:14.503Z,16.10
2022-11-13T21:06:01.094Z,16.10
2022-11-13T21:08:48.388Z,16.00
2022-11-13T21:11:34.787Z,16.00
2022-11-13T21:14:22.456Z,15.90
2022-11-13T21:17:09.028Z,16.10
2022-11-13T21:19:57.693Z,15.90
2022-11-13T21:22:44.409Z,15.90
2022-11-13T21:25:31.283Z,15.80
2022-11-13T21:28:23.392Z,15.80
2022-11-13T21:31:15.231Z,15.80
2022-11-13T21:34:01.407Z,15.80
2022-11-13T21:36:47.983Z,15.90
2022-11-13T21:39:34.525Z,15.90
2022-11-13T21:42:20.747Z,15.90
2022-11-13T21:45:07.909Z,15.70
2022-11-13T21:47:55.773Z,15.90
2022-11-13T21:50:42.020Z,15.80
2022-11-13T21:53:28.322Z,15.90
2022-11-13T21:56:15.950Z,15.90
2022-11-13T21:59:02.850Z,15.80
2022-11-13T22:01:49.624Z,15.80
2022-11-13T22:04:37.170Z,15.80
2022-11-13T22:07:23.726Z,15.80
2022-11-13T22:10:10.337Z,15.90
2022-11-13T22:12:56.507Z,15.90
2022-11-13T22:15:42.874Z,15.90
2022-11-13T22:18:29.605Z,16.10
2022-11-13T22:21:17.874Z,16.20
2022-11-13T22:24:04.950Z,16.30
2022-11-13T22:26:51.148Z,16.40
2022-11-13T22:29:37.556Z,16.50
2022-11-13T22:32:24.042Z,16.40
2022-11-13T22:35:10.729Z,16.50
2022-11-13T22:37:58.295Z,16.50
2022-11-13T22:40:44.913Z,16.50
2022-11-13T22:43:36.011Z,16.50
2022-11-13T22:46:24.267Z,16.40
2022-11-13T22:49:12.616Z,16.60
2022-11-13T22:51:58.973Z,16.50
2022-11-13T22:54:46.643Z,16.50
2022-11-13T22:57:33.324Z,16.40
2022-11-13T23:00:19.491Z,16.60
2022-11-13T23:03:05.721Z,16.50
2022-11-13T23:05:52.169Z,16.40
2022-11-13T23:08:40.135Z,16.30
2022-11-13T23:11:30.117Z,16.30
2022-11-13T23:14:16.948Z,16.20
2022-11-13T23:17:03.511Z,16.20
2022-11-13T23:19:49.711Z,16.40
2022-11-13T23:22:35.954Z,16.40
2022-11-13T23:25:21.980Z,16.50
2022-11-13T23:28:09.575Z,16.60
2022-11-13T23:30:55.922Z,16.30
2022-11-13T23:33:42.679Z,16.40
2022-11-13T23:36:30.469Z,16.50
2022-11-13T23:39:16.945Z,16.60
2022-11-13T23:42:03.187Z,16.60
2022-11-13T23:44:51.019Z,16.50
2022-11-13T23:47:37.211Z,16.50
2022-11-13T23:50:23.611Z,16.50
2022-11-13T23:53:10.365Z,16.60
2022-11-13T23:55:56.839Z,16.60
2022-11-13T23:58:43.306Z,16.60
